Time;durP1;ratioP1;P1;durP2;ratioP2;P2;SDS_P1;SDS_P2;PMS_P1;PMS_P2;Temp;Humidity;BMP_temperature;BMP_pressure;BME280_temperature;BME280_humidity;BME280_pressure;Samples;Min_cycle;Max_cycle;Signal;HPM_P1;HPM_P2
2021/04/16 00:00:17;;;;;;;1.30;1.10;;;;;;;;;;4995156;28;20365;-57
2021/04/16 00:02:42;;;;;;;2.67;1.50;;;;;;;;;;4994504;28;21471;-58
2021/04/16 00:05:08;;;;;;;1.48;1.27;;;;;;;;;;4995637;28;20110;-57
2021/04/16 00:07:34;;;;;;;1.67;1.25;;;;;;;;;;4977438;28;20058;-58
2021/04/16 00:09:59;;;;;;;1.35;1.20;;;;;;;;;;4996847;28;20487;-58
2021/04/16 00:12:25;;;;;;;1.45;1.20;;;;;;;;;;4976554;28;20398;-56
2021/04/16 00:14:50;;;;;;;2.13;1.30;;;;;;;;;;4983938;28;20031;-58
2021/04/16 00:17:15;;;;;;;1.95;1.40;;;;;;;;;;4996556;28;24730;-57
2021/04/16 00:19:41;;;;;;;1.98;1.27;;;;;;;;;;4996842;28;20485;-58
2021/04/16 00:22:07;;;;;;;2.75;1.52;;;;;;;;;;4996511;28;20034;-57
2021/04/16 00:24:32;;;;;;;2.00;1.55;;;;;;;;;;4995106;28;20034;-57
2021/04/16 00:26:57;;;;;;;1.88;1.33;;;;;;;;;;4994587;28;20069;-57
2021/04/16 00:29:23;;;;;;;1.80;1.08;;;;;;;;;;4996015;28;20305;-58
2021/04/16 00:31:51;;;;;;;2.00;1.40;;;;;;;;;;4995537;28;23804;-56
2021/04/16 00:34:18;;;;;;;3.42;1.50;;;;;;;;;;5000757;28;20497;-58
2021/04/16 00:36:43;;;;;;;1.88;1.40;;;;;;;;;;4993612;28;20097;-57
2021/04/16 00:39:09;;;;;;;3.00;1.48;;;;;;;;;;4993732;28;20108;-58
2021/04/16 00:41:34;;;;;;;2.63;1.45;;;;;;;;;;4995818;28;20052;-57
2021/04/16 00:44:00;;;;;;;1.50;1.30;;;;;;;;;;5000009;28;20373;-56
2021/04/16 00:46:44;;;;;;;2.35;1.40;;;;;;;;;;4998695;28;20035;-58
2021/04/16 00:49:12;;;;;;;2.72;1.60;;;;;;;;;;4998309;28;20031;-57
2021/04/16 00:51:50;;;;;;;1.55;1.30;;;;;;;;;;5001533;28;20042;-58
2021/04/16 00:54:18;;;;;;;2.20;1.48;;;;;;;;;;4998051;28;20042;-57
2021/04/16 00:56:44;;;;;;;1.75;1.40;;;;;;;;;;5003820;28;20034;-56
2021/04/16 00:59:09;;;;;;;1.30;1.20;;;;;;;;;;5003807;28;20054;-58
2021/04/16 01:01:35;;;;;;;1.70;1.50;;;;;;;;;;4987118;28;20038;-57
2021/04/16 01:04:00;;;;;;;3.35;1.60;;;;;;;;;;4997390;28;20034;-57
2021/04/16 01:06:26;;;;;;;2.80;1.42;;;;;;;;;;4998355;28;20113;-57
2021/04/16 01:08:51;;;;;;;1.55;1.30;;;;;;;;;;4981893;28;20034;-58
2021/04/16 01:11:17;;;;;;;1.92;1.33;;;;;;;;;;4998945;28;20397;-57
2021/04/16 01:13:43;;;;;;;1.63;1.15;;;;;;;;;;4996877;28;20437;-58
2021/04/16 01:16:10;;;;;;;2.22;1.35;;;;;;;;;;5000251;28;20031;-57
2021/04/16 01:18:37;;;;;;;2.22;1.58;;;;;;;;;;4987398;28;20054;-58
2021/04/16 01:21:05;;;;;;;1.60;1.20;;;;;;;;;;4997684;28;20077;-57
2021/04/16 01:23:49;;;;;;;3.47;1.70;;;;;;;;;;4991738;28;20031;-58
2021/04/16 01:26:19;;;;;;;2.67;1.65;;;;;;;;;;4998287;28;20039;-57
2021/04/16 01:28:45;;;;;;;2.03;1.40;;;;;;;;;;5001155;28;20495;-58
2021/04/16 01:31:13;;;;;;;1.63;1.40;;;;;;;;;;4997793;28;20041;-58
2021/04/16 01:33:38;;;;;;;2.10;1.50;;;;;;;;;;4999869;28;20039;-58
2021/04/16 01:36:11;;;;;;;2.00;1.48;;;;;;;;;;5000052;28;20035;-58
2021/04/16 01:38:36;;;;;;;2.80;1.63;;;;;;;;;;4996448;28;20113;-56
2021/04/16 01:41:02;;;;;;;2.20;1.60;;;;;;;;;;4996285;28;20134;-57
2021/04/16 01:43:33;;;;;;;1.75;1.40;;;;;;;;;;4997509;28;21297;-57
2021/04/16 01:46:19;;;;;;;1.87;1.40;;;;;;;;;;4997376;28;20042;-57
2021/04/16 01:48:52;;;;;;;1.40;1.25;;;;;;;;;;4996018;28;20381;-57
2021/04/16 01:51:38;;;;;;;1.83;1.40;;;;;;;;;;4998558;28;20034;-57
2021/04/16 01:54:09;;;;;;;1.80;1.30;;;;;;;;;;4997905;28;20090;-57
2021/04/16 01:56:34;;;;;;;2.15;1.40;;;;;;;;;;4995535;28;20042;-58
2021/04/16 01:59:00;;;;;;;2.30;1.30;;;;;;;;;;4998587;28;20043;-58
2021/04/16 02:01:25;;;;;;;2.35;1.70;;;;;;;;;;4997995;28;20065;-58
2021/04/16 02:03:51;;;;;;;1.98;1.67;;;;;;;;;;4996361;28;26858;-58
2021/04/16 02:06:16;;;;;;;1.95;1.33;;;;;;;;;;4998558;28;20036;-57
2021/04/16 02:08:42;;;;;;;1.80;1.50;;;;;;;;;;5003959;28;20050;-57
2021/04/16 02:11:07;;;;;;;1.65;1.48;;;;;;;;;;4998015;28;20034;-58
2021/04/16 02:13:32;;;;;;;2.15;1.52;;;;;;;;;;5012514;28;20038;-57
2021/04/16 02:15:58;;;;;;;1.92;1.35;;;;;;;;;;4997803;28;20027;-57
2021/04/16 02:18:23;;;;;;;2.67;1.25;;;;;;;;;;5001686;28;29134;-57
2021/04/16 02:20:49;;;;;;;1.73;1.30;;;;;;;;;;4997343;28;20034;-58
2021/04/16 02:23:14;;;;;;;2.13;1.20;;;;;;;;;;4998046;28;20030;-56
2021/04/16 02:25:40;;;;;;;1.70;1.10;;;;;;;;;;4997514;28;21022;-57
2021/04/16 02:28:05;;;;;;;2.05;1.55;;;;;;;;;;4997672;28;20039;-57
2021/04/16 02:30:33;;;;;;;2.38;1.30;;;;;;;;;;4996786;28;20040;-58
2021/04/16 02:32:58;;;;;;;2.47;1.40;;;;;;;;;;5002258;28;20039;-57
2021/04/16 02:35:24;;;;;;;1.52;1.25;;;;;;;;;;4995795;28;20514;-58
2021/04/16 02:37:50;;;;;;;1.92;1.60;;;;;;;;;;4998638;28;20038;-57
2021/04/16 02:40:16;;;;;;;2.17;1.40;;;;;;;;;;4995867;28;20066;-58
2021/04/16 02:42:42;;;;;;;1.70;1.35;;;;;;;;;;4995742;28;20031;-57
2021/04/16 02:45:08;;;;;;;1.80;1.30;;;;;;;;;;4995870;28;20485;-57
2021/04/16 02:47:34;;;;;;;1.33;1.23;;;;;;;;;;4996363;28;20031;-58
2021/04/16 02:49:59;;;;;;;2.15;1.40;;;;;;;;;;4995588;28;20038;-57
2021/04/16 02:52:25;;;;;;;2.00;1.40;;;;;;;;;;4997610;28;20105;-58
2021/04/16 02:54:50;;;;;;;1.60;1.30;;;;;;;;;;4997128;28;20610;-57
2021/04/16 02:57:16;;;;;;;1.60;1.20;;;;;;;;;;4978172;28;20416;-58
2021/04/16 02:59:41;;;;;;;1.55;1.20;;;;;;;;;;4996667;28;20048;-57
2021/04/16 03:02:06;;;;;;;2.17;1.35;;;;;;;;;;4995963;28;20120;-56
2021/04/16 03:04:32;;;;;;;1.60;1.20;;;;;;;;;;4995937;28;20905;-58
2021/04/16 03:06:57;;;;;;;1.60;1.30;;;;;;;;;;4987087;28;20030;-57
2021/04/16 03:09:23;;;;;;;1.92;1.30;;;;;;;;;;4996865;28;20034;-58
2021/04/16 03:11:49;;;;;;;1.35;1.17;;;;;;;;;;4994218;28;20097;-57
2021/04/16 03:14:14;;;;;;;2.42;1.20;;;;;;;;;;4997021;28;20031;-58
2021/04/16 03:16:40;;;;;;;2.38;1.30;;;;;;;;;;4997305;28;20026;-58
2021/04/16 03:19:06;;;;;;;1.83;1.45;;;;;;;;;;4996125;28;20453;-58
2021/04/16 03:21:31;;;;;;;2.03;1.30;;;;;;;;;;4996078;28;20762;-57
2021/04/16 03:23:57;;;;;;;2.20;1.60;;;;;;;;;;4996048;28;20122;-57
2021/04/16 03:26:22;;;;;;;2.55;1.60;;;;;;;;;;4994479;28;20035;-57
2021/04/16 03:28:54;;;;;;;2.75;1.40;;;;;;;;;;4994456;28;20532;-58
2021/04/16 03:31:20;;;;;;;1.60;1.27;;;;;;;;;;4997218;28;20113;-56
2021/04/16 03:33:45;;;;;;;1.55;1.10;;;;;;;;;;5000675;28;20045;-58
2021/04/16 03:36:11;;;;;;;2.25;1.60;;;;;;;;;;4997838;28;20036;-57
2021/04/16 03:38:36;;;;;;;2.03;1.20;;;;;;;;;;4996355;28;20627;-57
2021/04/16 03:41:02;;;;;;;1.33;1.20;;;;;;;;;;4997052;28;20035;-58
2021/04/16 03:43:27;;;;;;;1.75;1.30;;;;;;;;;;4996237;28;20425;-58
2021/04/16 03:45:53;;;;;;;1.52;1.30;;;;;;;;;;4994634;28;20374;-58
2021/04/16 03:48:18;;;;;;;1.88;1.45;;;;;;;;;;4994807;28;20035;-57
2021/04/16 03:50:44;;;;;;;1.85;1.35;;;;;;;;;;4995315;28;20632;-57
2021/04/16 03:53:09;;;;;;;2.10;1.30;;;;;;;;;;4995731;28;20030;-58
2021/04/16 03:55:36;;;;;;;2.20;1.10;;;;;;;;;;5003920;28;20908;-57
2021/04/16 03:58:01;;;;;;;1.33;1.20;;;;;;;;;;4997391;28;20041;-57
2021/04/16 04:00:30;;;;;;;2.05;1.20;;;;;;;;;;4985508;28;20057;-57
2021/04/16 04:02:56;;;;;;;1.65;1.40;;;;;;;;;;5001138;28;20031;-58
2021/04/16 04:05:22;;;;;;;1.75;1.38;;;;;;;;;;4994075;28;20062;-57
2021/04/16 04:07:47;;;;;;;2.13;1.35;;;;;;;;;;4995254;28;20066;-57
2021/04/16 04:10:13;;;;;;;1.33;1.10;;;;;;;;;;4995001;28;20443;-57
2021/04/16 04:12:39;;;;;;;1.40;1.20;;;;;;;;;;4978189;28;20041;-57
2021/04/16 04:15:06;;;;;;;2.13;1.35;;;;;;;;;;4996710;28;20026;-57
2021/04/16 04:17:33;;;;;;;2.78;1.45;;;;;;;;;;5001642;28;20053;-57
2021/04/16 04:19:59;;;;;;;1.70;1.25;;;;;;;;;;4997230;28;20117;-56
2021/04/16 04:22:24;;;;;;;2.13;1.52;;;;;;;;;;4999104;28;20400;-57
2021/04/16 04:24:50;;;;;;;1.33;1.17;;;;;;;;;;4980715;28;20122;-57
2021/04/16 04:27:15;;;;;;;1.65;1.30;;;;;;;;;;4999792;28;20390;-58
2021/04/16 04:29:41;;;;;;;1.95;1.40;;;;;;;;;;4986261;28;20038;-58
2021/04/16 04:32:06;;;;;;;1.70;1.33;;;;;;;;;;4985839;28;20504;-58
2021/04/16 04:34:32;;;;;;;2.03;1.40;;;;;;;;;;5013511;28;20711;-58
2021/04/16 04:36:59;;;;;;;2.22;1.40;;;;;;;;;;4998016;28;20126;-58
2021/04/16 04:39:26;;;;;;;1.58;1.40;;;;;;;;;;4999821;28;20077;-57
2021/04/16 04:41:51;;;;;;;2.97;1.77;;;;;;;;;;4990432;28;20101;-57
2021/04/16 04:44:17;;;;;;;1.65;1.30;;;;;;;;;;4997534;28;20041;-57
2021/04/16 04:46:42;;;;;;;1.65;1.33;;;;;;;;;;4987835;28;20485;-58
2021/04/16 04:49:08;;;;;;;2.13;1.48;;;;;;;;;;4998550;28;20045;-57
2021/04/16 04:51:34;;;;;;;2.25;1.67;;;;;;;;;;4964303;28;20225;-58
2021/04/16 04:54:00;;;;;;;1.83;1.25;;;;;;;;;;4999806;28;20855;-57
2021/04/16 04:56:25;;;;;;;1.98;1.60;;;;;;;;;;4997850;28;20042;-57
2021/04/16 04:58:51;;;;;;;2.83;1.27;;;;;;;;;;4996609;28;20124;-58
2021/04/16 05:01:16;;;;;;;2.17;1.33;;;;;;;;;;4998456;28;20034;-58
2021/04/16 05:03:42;;;;;;;2.20;1.40;;;;;;;;;;4997951;28;20563;-54
2021/04/16 05:06:07;;;;;;;2.20;1.40;;;;;;;;;;4994753;28;20035;-57
2021/04/16 05:08:33;;;;;;;6.28;4.05;;;;;;;;;;4998119;28;20045;-57
2021/04/16 05:11:00;;;;;;;8.13;5.18;;;;;;;;;;4998220;28;20560;-58
2021/04/16 05:13:26;;;;;;;3.17;2.03;;;;;;;;;;4995106;28;20027;-58
2021/04/16 05:15:51;;;;;;;3.60;2.45;;;;;;;;;;5002469;28;20042;-57
2021/04/16 05:18:17;;;;;;;2.83;1.88;;;;;;;;;;4998034;28;20058;-57
2021/04/16 05:20:42;;;;;;;3.13;2.10;;;;;;;;;;4998591;28;20037;-57
2021/04/16 05:23:07;;;;;;;4.30;3.50;;;;;;;;;;4997874;28;20146;-58
2021/04/16 05:25:33;;;;;;;4.88;4.00;;;;;;;;;;4996675;28;20597;-57
2021/04/16 05:27:58;;;;;;;3.97;2.38;;;;;;;;;;5002724;28;20026;-58
2021/04/16 05:30:24;;;;;;;2.67;1.90;;;;;;;;;;4997133;28;20104;-57
2021/04/16 05:32:50;;;;;;;3.78;2.72;;;;;;;;;;5003884;28;20126;-57
2021/04/16 05:35:15;;;;;;;2.08;1.55;;;;;;;;;;5002902;28;24116;-58
2021/04/16 05:37:41;;;;;;;2.45;1.83;;;;;;;;;;4998834;28;20037;-57
2021/04/16 05:40:07;;;;;;;2.85;1.77;;;;;;;;;;4998194;28;20142;-60
2021/04/16 05:42:33;;;;;;;3.38;2.47;;;;;;;;;;5002592;28;20042;-57
2021/04/16 05:45:00;;;;;;;6.18;3.75;;;;;;;;;;4998481;28;20560;-58
2021/04/16 05:47:29;;;;;;;8.13;5.50;;;;;;;;;;4999551;28;20504;-57
2021/04/16 05:49:55;;;;;;;4.03;2.70;;;;;;;;;;4997806;28;20540;-58
2021/04/16 05:52:20;;;;;;;3.30;2.10;;;;;;;;;;4997814;28;20034;-59
2021/04/16 05:54:46;;;;;;;2.72;1.98;;;;;;;;;;4994515;28;20069;-58
2021/04/16 05:57:11;;;;;;;2.00;1.60;;;;;;;;;;4997890;28;20085;-57
2021/04/16 05:59:37;;;;;;;2.92;2.00;;;;;;;;;;4998842;28;20042;-56
2021/04/16 06:02:03;;;;;;;2.22;1.75;;;;;;;;;;4996200;28;20035;-55
2021/04/16 06:04:28;;;;;;;2.97;2.10;;;;;;;;;;4981313;28;20026;-58
2021/04/16 06:06:54;;;;;;;2.72;1.80;;;;;;;;;;4998728;28;20030;-58
2021/04/16 06:09:20;;;;;;;2.38;1.70;;;;;;;;;;4998612;28;20449;-57
2021/04/16 06:11:45;;;;;;;2.45;1.98;;;;;;;;;;4997037;28;20523;-57
2021/04/16 06:14:11;;;;;;;2.70;1.90;;;;;;;;;;4996543;28;20038;-57
2021/04/16 06:16:36;;;;;;;3.40;2.10;;;;;;;;;;4997703;28;20041;-57
2021/04/16 06:19:03;;;;;;;2.28;1.60;;;;;;;;;;4996543;28;20034;-58
2021/04/16 06:21:28;;;;;;;3.10;1.95;;;;;;;;;;5002253;28;20082;-57
2021/04/16 06:23:54;;;;;;;2.97;2.00;;;;;;;;;;4996355;28;20031;-58
2021/04/16 06:26:19;;;;;;;3.10;1.70;;;;;;;;;;4971954;28;20485;-57
2021/04/16 06:28:45;;;;;;;2.45;1.52;;;;;;;;;;4997061;28;20034;-56
2021/04/16 06:31:12;;;;;;;2.15;1.50;;;;;;;;;;4981425;28;20054;-58
2021/04/16 06:33:38;;;;;;;2.08;1.27;;;;;;;;;;4981002;28;20038;-57
2021/04/16 06:36:08;;;;;;;1.95;1.30;;;;;;;;;;4996370;28;20089;-57
2021/04/16 06:38:36;;;;;;;3.33;1.60;;;;;;;;;;4980198;28;20039;-58
2021/04/16 06:41:02;;;;;;;3.17;1.55;;;;;;;;;;5000551;28;20039;-57
2021/04/16 06:43:39;;;;;;;2.17;1.60;;;;;;;;;;4996018;28;20038;-58
2021/04/16 06:46:05;;;;;;;2.20;1.50;;;;;;;;;;4978961;28;20064;-57
2021/04/16 06:48:30;;;;;;;1.92;1.50;;;;;;;;;;4997051;28;20063;-58
2021/04/16 06:50:59;;;;;;;1.88;1.40;;;;;;;;;;4997767;28;20042;-58
2021/04/16 06:53:30;;;;;;;2.38;1.60;;;;;;;;;;4994994;28;20030;-57
2021/04/16 06:56:03;;;;;;;2.53;1.42;;;;;;;;;;4994997;28;20856;-58
2021/04/16 06:58:34;;;;;;;2.70;1.48;;;;;;;;;;4995742;28;20078;-58
2021/04/16 07:01:13;;;;;;;2.58;1.73;;;;;;;;;;4984254;28;20038;-57
2021/04/16 07:03:44;;;;;;;2.17;1.60;;;;;;;;;;4985988;28;20058;-57
2021/04/16 07:06:10;;;;;;;;;;;;;;;;;;4985216;28;20644;-57
2021/04/16 07:08:36;;;;;;;2.45;1.77;;;;;;;;;;4997757;28;20025;-58
2021/04/16 07:11:03;;;;;;;3.28;2.15;;;;;;;;;;4995228;28;20117;-57
2021/04/16 07:13:39;;;;;;;2.78;2.08;;;;;;;;;;4996691;28;20034;-58
2021/04/16 07:16:05;;;;;;;3.90;2.60;;;;;;;;;;4994428;28;20039;-58
2021/04/16 07:18:34;;;;;;;3.15;2.25;;;;;;;;;;4997334;28;20039;-58
2021/04/16 07:21:00;;;;;;;3.17;2.35;;;;;;;;;;4987857;28;20039;-57
2021/04/16 07:23:25;;;;;;;3.97;2.60;;;;;;;;;;4994645;28;20030;-57
2021/04/16 07:26:08;;;;;;;3.40;2.17;;;;;;;;;;4993798;28;20086;-57
2021/04/16 07:28:47;;;;;;;3.08;2.20;;;;;;;;;;4979966;28;20038;-58
2021/04/16 07:31:24;;;;;;;3.55;2.20;;;;;;;;;;4995663;28;20486;-57
2021/04/16 07:33:50;;;;;;;3.75;2.35;;;;;;;;;;4997014;28;20130;-57
2021/04/16 07:36:40;;;;;;;3.55;2.53;;;;;;;;;;5001376;28;20042;-57
2021/04/16 07:39:12;;;;;;;2.65;1.80;;;;;;;;;;4995098;28;20050;-57
2021/04/16 07:41:49;;;;;;;1.83;1.30;;;;;;;;;;4993064;28;20062;-57
2021/04/16 07:44:29;;;;;;;2.90;1.23;;;;;;;;;;4995471;28;21539;-57
2021/04/16 07:46:59;;;;;;;1.63;1.27;;;;;;;;;;4979367;28;20081;-57
2021/04/16 07:49:32;;;;;;;1.90;1.10;;;;;;;;;;4993792;28;20346;-58
2021/04/16 07:52:19;;;;;;;2.35;0.95;;;;;;;;;;4994503;28;20035;-56
2021/04/16 07:55:06;;;;;;;1.33;1.08;;;;;;;;;;4984648;28;20038;-58
2021/04/16 07:57:32;;;;;;;2.00;1.35;;;;;;;;;;4994629;28;20584;-57
2021/04/16 08:00:01;;;;;;;1.67;1.20;;;;;;;;;;4995513;28;20038;-57
2021/04/16 08:02:34;;;;;;;1.50;1.15;;;;;;;;;;5006027;28;20038;-57
2021/04/16 08:05:11;;;;;;;1.92;1.30;;;;;;;;;;4994680;28;20034;-58
2021/04/16 08:07:36;;;;;;;1.42;1.15;;;;;;;;;;4985635;28;20152;-58
2021/04/16 08:10:12;;;;;;;1.60;1.30;;;;;;;;;;4994378;28;20038;-58
2021/04/16 08:12:38;;;;;;;1.10;0.93;;;;;;;;;;4994886;28;20162;-58
2021/04/16 08:15:32;;;;;;;1.63;1.23;;;;;;;;;;4995282;28;20034;-57
2021/04/16 08:18:09;;;;;;;1.95;1.23;;;;;;;;;;4994051;28;20041;-57
2021/04/16 08:20:38;;;;;;;1.77;1.10;;;;;;;;;;5010455;28;20059;-57
2021/04/16 08:23:03;;;;;;;2.35;1.35;;;;;;;;;;4994266;28;20560;-62
2021/04/16 08:25:38;;;;;;;1.48;1.10;;;;;;;;;;4961498;28;20042;-58
2021/04/16 08:28:09;;;;;;;1.98;1.30;;;;;;;;;;4985320;28;20042;-58
2021/04/16 08:31:05;;;;;;;2.97;1.50;;;;;;;;;;4968926;28;20089;-57
2021/04/16 08:33:44;;;;;;;1.38;1.00;;;;;;;;;;4979940;28;20082;-57
2021/04/16 08:36:18;;;;;;;3.63;1.40;;;;;;;;;;4978690;28;20035;-57
2021/04/16 08:39:18;;;;;;;1.17;0.90;;;;;;;;;;4993896;28;20050;-58
2021/04/16 08:41:52;;;;;;;2.88;1.40;;;;;;;;;;4996245;28;20041;-57
2021/04/16 08:44:17;;;;;;;1.25;0.98;;;;;;;;;;4993986;28;21016;-58
2021/04/16 08:46:47;;;;;;;2.10;1.08;;;;;;;;;;5001058;28;20031;-58
2021/04/16 08:49:16;;;;;;;1.10;1.00;;;;;;;;;;4997132;28;20117;-58
2021/04/16 08:51:44;;;;;;;1.60;1.20;;;;;;;;;;4996646;28;20360;-57
2021/04/16 08:54:17;;;;;;;1.73;1.20;;;;;;;;;;4984484;28;20034;-58
2021/04/16 08:56:54;;;;;;;1.30;1.20;;;;;;;;;;5001110;28;20070;-58
2021/04/16 08:59:19;;;;;;;1.48;1.05;;;;;;;;;;4980514;28;20101;-57
2021/04/16 09:02:05;;;;;;;1.23;1.02;;;;;;;;;;5001014;28;20069;-57
2021/04/16 09:04:30;;;;;;;1.92;1.10;;;;;;;;;;4996633;28;20042;-57
2021/04/16 09:06:57;;;;;;;1.77;1.10;;;;;;;;;;4997518;28;20043;-58
2021/04/16 09:09:39;;;;;;;1.80;1.20;;;;;;;;;;4994385;28;20041;-63
2021/04/16 09:12:05;;;;;;;1.83;1.15;;;;;;;;;;4999353;28;20030;-57
2021/04/16 09:14:32;;;;;;;2.67;1.10;;;;;;;;;;4995957;28;20019;-58
2021/04/16 09:17:07;;;;;;;1.92;1.13;;;;;;;;;;4997462;28;20078;-60
2021/04/16 09:19:32;;;;;;;1.95;1.17;;;;;;;;;;4997949;28;20100;-59
2021/04/16 09:22:04;;;;;;;2.30;1.08;;;;;;;;;;4999144;28;20066;-55
2021/04/16 09:24:46;;;;;;;1.85;1.27;;;;;;;;;;4999124;28;20576;-58
2021/04/16 09:27:15;;;;;;;1.30;1.15;;;;;;;;;;4997590;28;20551;-57
2021/04/16 09:29:41;;;;;;;2.03;1.20;;;;;;;;;;4995909;28;20042;-57
2021/04/16 09:32:30;;;;;;;1.52;1.27;;;;;;;;;;4995709;28;20035;-55
2021/04/16 09:34:55;;;;;;;1.63;0.95;;;;;;;;;;4995977;28;20077;-52
2021/04/16 09:37:34;;;;;;;2.80;1.30;;;;;;;;;;4997977;28;20041;-55
2021/04/16 09:40:19;;;;;;;1.42;1.10;;;;;;;;;;4996381;28;20105;-56
2021/04/16 09:42:56;;;;;;;1.70;1.10;;;;;;;;;;4998596;28;20045;-55
2021/04/16 09:45:27;;;;;;;2.08;1.20;;;;;;;;;;4998339;28;20034;-55
2021/04/16 09:47:53;;;;;;;1.47;1.20;;;;;;;;;;4998088;28;20134;-56
2021/04/16 09:50:27;;;;;;;1.45;1.10;;;;;;;;;;4979865;28;20278;-56
2021/04/16 09:53:10;;;;;;;2.08;1.00;;;;;;;;;;4995217;28;20066;-56
2021/04/16 09:55:57;;;;;;;2.13;1.00;;;;;;;;;;4995294;28;20038;-58
2021/04/16 09:58:32;;;;;;;1.17;1.00;;;;;;;;;;4997189;28;20034;-58
2021/04/16 10:00:58;;;;;;;1.95;1.27;;;;;;;;;;4997148;28;20046;-58
2021/04/16 10:03:39;;;;;;;2.25;1.42;;;;;;;;;;4996059;28;20908;-58
2021/04/16 10:06:31;;;;;;;2.17;1.30;;;;;;;;;;4979308;28;20066;-58
2021/04/16 10:09:07;;;;;;;1.70;1.10;;;;;;;;;;5006218;28;20129;-57
2021/04/16 10:11:33;;;;;;;1.30;1.10;;;;;;;;;;4995220;28;20633;-58
2021/04/16 10:14:20;;;;;;;1.75;1.30;;;;;;;;;;4999683;28;20035;-58
2021/04/16 10:16:48;;;;;;;2.03;1.30;;;;;;;;;;4998912;28;20876;-58
2021/04/16 10:19:15;;;;;;;2.22;1.15;;;;;;;;;;5002999;28;20049;-58
2021/04/16 10:21:41;;;;;;;1.73;1.17;;;;;;;;;;4996561;28;20026;-57
2021/04/16 11:45:58;;;;;;;2.50;0.80;;;;;;;;;;4966643;28;20910;-58
2021/04/16 12:38:01;;;;;;;0.82;0.68;;;;;;;;;;4997719;28;20043;-58
2021/04/16 12:40:26;;;;;;;1.20;0.82;;;;;;;;;;5004340;28;20834;-58
2021/04/16 12:42:54;;;;;;;1.02;0.80;;;;;;;;;;4999924;28;20077;-59
2021/04/16 12:45:20;;;;;;;0.82;0.70;;;;;;;;;;4987931;28;20040;-58
2021/04/16 12:47:46;;;;;;;1.05;0.80;;;;;;;;;;4997596;28;20054;-58
2021/04/16 12:50:13;;;;;;;0.80;0.80;;;;;;;;;;5005572;28;20034;-59
2021/04/16 12:52:39;;;;;;;1.00;0.80;;;;;;;;;;4999158;28;20031;-59
2021/04/16 12:55:04;;;;;;;1.42;0.90;;;;;;;;;;4998690;28;20042;-59
2021/04/16 12:57:33;;;;;;;0.65;0.65;;;;;;;;;;4996839;28;20038;-57
2021/04/16 12:59:59;;;;;;;1.00;0.80;;;;;;;;;;5000584;28;20054;-58
2021/04/16 13:02:26;;;;;;;0.70;0.70;;;;;;;;;;4980356;28;20394;-59
2021/04/16 13:04:52;;;;;;;1.15;0.80;;;;;;;;;;5008682;28;20054;-59
2021/04/16 13:07:17;;;;;;;1.08;0.77;;;;;;;;;;4996470;28;20053;-58
2021/04/16 13:09:43;;;;;;;0.98;0.77;;;;;;;;;;4995946;28;20030;-58
2021/04/16 13:12:09;;;;;;;1.40;0.82;;;;;;;;;;5004611;28;20608;-58
2021/04/16 13:14:34;;;;;;;2.40;0.80;;;;;;;;;;4997915;28;20065;-59
2021/04/16 13:17:00;;;;;;;1.02;0.90;;;;;;;;;;4998019;28;21045;-59
2021/04/16 13:19:29;;;;;;;1.63;1.08;;;;;;;;;;4988026;28;20053;-60
2021/04/16 13:22:06;;;;;;;1.00;0.73;;;;;;;;;;4996188;28;20034;-59
2021/04/16 13:24:33;;;;;;;1.27;0.60;;;;;;;;;;4982968;28;20117;-59
2021/04/16 13:26:59;;;;;;;1.50;0.80;;;;;;;;;;4997679;28;20416;-58
2021/04/16 13:29:25;;;;;;;1.73;0.90;;;;;;;;;;4998222;28;20019;-58
2021/04/16 13:31:50;;;;;;;0.90;0.80;;;;;;;;;;5000256;28;20681;-59
2021/04/16 13:34:16;;;;;;;1.30;0.70;;;;;;;;;;4998641;28;20034;-58
2021/04/16 13:36:41;;;;;;;1.63;0.80;;;;;;;;;;4996406;28;20106;-59
2021/04/16 13:39:07;;;;;;;1.98;0.82;;;;;;;;;;4999508;28;20034;-59
2021/04/16 13:41:32;;;;;;;1.10;0.88;;;;;;;;;;4994820;28;20035;-59
2021/04/16 13:43:59;;;;;;;1.63;0.90;;;;;;;;;;4997659;28;20026;-59
2021/04/16 13:46:28;;;;;;;1.27;0.60;;;;;;;;;;4997431;28;20166;-60
2021/04/16 13:48:54;;;;;;;0.88;0.70;;;;;;;;;;4980207;28;20937;-59
2021/04/16 13:51:22;;;;;;;0.90;0.73;;;;;;;;;;4996615;28;20031;-59
2021/04/16 13:53:48;;;;;;;1.67;0.73;;;;;;;;;;4998226;28;20493;-59
2021/04/16 13:56:13;;;;;;;1.10;0.80;;;;;;;;;;4998194;28;20042;-58
2021/04/16 13:58:39;;;;;;;1.17;0.80;;;;;;;;;;5000369;28;20497;-58
2021/04/16 14:01:05;;;;;;;1.38;0.80;;;;;;;;;;5003261;28;20089;-59
2021/04/16 14:03:44;;;;;;;1.50;0.70;;;;;;;;;;5004926;28;20045;-58
2021/04/16 14:06:14;;;;;;;1.17;0.90;;;;;;;;;;4996363;28;20065;-59
2021/04/16 14:08:41;;;;;;;0.80;0.80;;;;;;;;;;4970930;28;20117;-59
2021/04/16 14:11:07;;;;;;;1.75;0.98;;;;;;;;;;5002425;28;20034;-59
2021/04/16 14:13:32;;;;;;;1.95;0.95;;;;;;;;;;4997297;28;20469;-60
2021/04/16 14:16:08;;;;;;;1.42;0.80;;;;;;;;;;4999108;28;20146;-60
2021/04/16 14:18:38;;;;;;;0.73;0.73;;;;;;;;;;4971187;28;20118;-60
2021/04/16 14:21:26;;;;;;;1.48;0.82;;;;;;;;;;5002475;28;20883;-60
2021/04/16 14:23:52;;;;;;;1.17;0.77;;;;;;;;;;5011799;28;20798;-59
2021/04/16 14:26:19;;;;;;;1.23;0.82;;;;;;;;;;4995929;28;20031;-60
2021/04/16 14:28:45;;;;;;;1.25;1.00;;;;;;;;;;4997563;28;20547;-59
2021/04/16 14:31:10;;;;;;;0.82;0.82;;;;;;;;;;4998116;28;20085;-59
2021/04/16 14:33:38;;;;;;;1.00;0.70;;;;;;;;;;4996965;28;20077;-59
2021/04/16 14:36:04;;;;;;;1.92;1.02;;;;;;;;;;5012641;28;20492;-59
2021/04/16 14:38:32;;;;;;;1.55;0.88;;;;;;;;;;4998393;28;20041;-60
2021/04/16 14:40:57;;;;;;;1.02;0.82;;;;;;;;;;4994765;28;20109;-59
2021/04/16 14:43:23;;;;;;;1.92;1.05;;;;;;;;;;4996544;28;20544;-59
2021/04/16 14:45:50;;;;;;;1.42;0.80;;;;;;;;;;4995710;28;20170;-59
2021/04/16 14:48:16;;;;;;;1.10;0.90;;;;;;;;;;4996982;28;20046;-58
2021/04/16 14:50:42;;;;;;;1.33;0.75;;;;;;;;;;4997701;28;20054;-60
2021/04/16 14:53:22;;;;;;;1.17;0.90;;;;;;;;;;4978039;28;20046;-59
2021/04/16 14:55:48;;;;;;;3.00;1.00;;;;;;;;;;4994842;28;20161;-60
2021/04/16 14:58:15;;;;;;;2.25;1.10;;;;;;;;;;4998951;28;20501;-60
2021/04/16 15:00:41;;;;;;;1.40;0.90;;;;;;;;;;4989039;28;20416;-60
2021/04/16 15:03:06;;;;;;;1.73;1.10;;;;;;;;;;4996931;28;20039;-59
2021/04/16 15:05:33;;;;;;;1.25;0.95;;;;;;;;;;4996115;28;20575;-60
2021/04/16 15:08:25;;;;;;;1.48;0.85;;;;;;;;;;4994647;28;20089;-59
2021/04/16 15:11:11;;;;;;;1.17;1.00;;;;;;;;;;4997742;28;20109;-58
2021/04/16 15:13:36;;;;;;;1.67;1.00;;;;;;;;;;5009541;28;20860;-59
2021/04/16 15:16:14;;;;;;;1.15;1.00;;;;;;;;;;4979156;28;20041;-58
2021/04/16 15:18:40;;;;;;;1.40;1.00;;;;;;;;;;4998976;28;20174;-58
2021/04/16 15:21:07;;;;;;;2.17;1.10;;;;;;;;;;5011835;28;20760;-59
2021/04/16 15:23:32;;;;;;;2.65;1.20;;;;;;;;;;4993154;28;20031;-59
2021/04/16 15:25:59;;;;;;;1.20;1.00;;;;;;;;;;4995048;28;20034;-59
2021/04/16 15:28:34;;;;;;;1.40;1.00;;;;;;;;;;4977951;28;20114;-59
2021/04/16 15:31:11;;;;;;;1.98;1.10;;;;;;;;;;4994687;28;20046;-58
2021/04/16 15:47:54;;;;;;;2.60;1.17;;;;;;;;;;4989180;28;20038;-59
2021/04/16 15:50:28;;;;;;;2.33;1.00;;;;;;;;;;5001953;28;20409;-59
2021/04/16 15:52:53;;;;;;;1.48;1.13;;;;;;;;;;4984307;28;20042;-58
2021/04/16 15:55:19;;;;;;;1.83;0.88;;;;;;;;;;4997342;28;20041;-60
2021/04/16 15:57:45;;;;;;;1.17;1.08;;;;;;;;;;4978555;28;20089;-59
2021/04/16 16:00:23;;;;;;;1.42;1.00;;;;;;;;;;4995814;28;20077;-64
2021/04/16 16:02:49;;;;;;;1.88;1.10;;;;;;;;;;4997212;28;20069;-59
2021/04/16 16:05:15;;;;;;;2.38;1.15;;;;;;;;;;4994044;28;20045;-62
2021/04/16 16:07:40;;;;;;;1.60;1.00;;;;;;;;;;4996019;28;20065;-59
2021/04/16 16:10:09;;;;;;;1.80;1.30;;;;;;;;;;4995144;28;20039;-60
2021/04/16 16:12:36;;;;;;;2.53;1.10;;;;;;;;;;5005272;28;20116;-58
2021/04/16 16:15:08;;;;;;;1.83;1.10;;;;;;;;;;4989130;28;20142;-59
2021/04/16 16:17:35;;;;;;;1.10;1.00;;;;;;;;;;4981040;28;20070;-58
2021/04/16 16:20:03;;;;;;;1.40;1.00;;;;;;;;;;5000394;28;20129;-59
2021/04/16 16:22:31;;;;;;;1.55;1.10;;;;;;;;;;4997565;28;20042;-59
2021/04/16 16:24:56;;;;;;;1.35;1.05;;;;;;;;;;5002163;28;20026;-59
2021/04/16 16:27:23;;;;;;;2.45;1.10;;;;;;;;;;4999270;28;20378;-59
2021/04/16 16:29:49;;;;;;;1.63;1.23;;;;;;;;;;4997946;28;20063;-60
2021/04/16 16:32:19;;;;;;;1.63;1.20;;;;;;;;;;4997345;28;20039;-60
2021/04/16 16:34:45;;;;;;;1.48;1.00;;;;;;;;;;4997197;28;20039;-59
2021/04/16 16:37:16;;;;;;;1.40;0.90;;;;;;;;;;5002898;28;20592;-59
2021/04/16 16:39:42;;;;;;;2.85;1.48;;;;;;;;;;5007692;28;20054;-59
2021/04/16 16:42:08;;;;;;;2.17;1.08;;;;;;;;;;4982258;28;20483;-60
2021/04/16 16:44:35;;;;;;;1.65;1.10;;;;;;;;;;4980423;28;20065;-60
2021/04/16 16:47:02;;;;;;;1.25;0.98;;;;;;;;;;4987772;28;20517;-59
2021/04/16 16:49:27;;;;;;;2.47;1.17;;;;;;;;;;4996905;28;20035;-59
2021/04/16 16:51:53;;;;;;;1.67;1.20;;;;;;;;;;5005346;28;20042;-58
2021/04/16 16:54:20;;;;;;;1.60;1.13;;;;;;;;;;4988220;28;20061;-60
2021/04/16 16:56:50;;;;;;;1.20;1.00;;;;;;;;;;5004473;28;20038;-59
2021/04/16 16:59:21;;;;;;;1.75;0.90;;;;;;;;;;5013774;28;20045;-58
2021/04/16 17:01:47;;;;;;;3.03;1.07;;;;;;;;;;4997835;28;20540;-60
2021/04/16 17:04:13;;;;;;;1.30;1.00;;;;;;;;;;4995952;28;20026;-59
2021/04/16 17:06:38;;;;;;;1.88;1.10;;;;;;;;;;4997381;28;20043;-58
2021/04/16 17:09:04;;;;;;;1.45;1.30;;;;;;;;;;4999573;28;20083;-59
2021/04/16 17:11:30;;;;;;;1.15;0.98;;;;;;;;;;5005847;28;20480;-58
2021/04/16 17:13:58;;;;;;;3.25;1.30;;;;;;;;;;5000654;28;20027;-59
2021/04/16 17:16:24;;;;;;;2.05;1.10;;;;;;;;;;4986660;28;20484;-58